Time;durP1;ratioP1;P1;durP2;ratioP2;P2;SDS_P1;SDS_P2;PMS_P1;PMS_P2;Temp;Humidity;BMP_temperature;BMP_pressure;BME280_temperature;BME280_humidity;BME280_pressure;Samples;Min_cycle;Max_cycle;Signal;HPM_P1;HPM_P2
2021/12/28 00:01:50;;;;;;;;;;;;;;;;;;5134966;27;944;-61
2021/12/28 00:04:16;;;;;;;;;;;;;;;;;;5135141;27;983;-61
2021/12/28 00:06:41;;;;;;;;;;;;;;;;;;5099215;27;1547;-61
2021/12/28 00:09:07;;;;;;;;;;;;;;;;;;5134322;27;912;-61
2021/12/28 00:11:32;;;;;;;;;;;;;;;;;;5134796;27;2047;-61
2021/12/28 00:14:01;;;;;;;;;;;;;;;;;;5134255;27;891;-61
2021/12/28 00:16:33;;;;;;;;;;;;;;;;;;5133854;27;867;-61
2021/12/28 00:18:59;;;;;;;;;;;;;;;;;;5134766;27;901;-61
2021/12/28 00:21:25;;;;;;;;;;;;;;;;;;5133957;27;821;-61
2021/12/28 00:23:50;;;;;;;;;;;;;;;;;;5135125;27;915;-61
2021/12/28 00:26:15;;;;;;;;;;;;;;;;;;5115997;27;911;-61
2021/12/28 00:28:42;;;;;;;;;;;;;;;;;;5134423;27;873;-61
2021/12/28 00:31:08;;;;;;;;;;;;;;;;;;5134478;27;844;-61
2021/12/28 00:33:34;;;;;;;;;;;;;;;;;;5134286;27;1898;-61
2021/12/28 00:36:00;;;;;;;;;;;;;;;;;;5134302;27;1016;-61
2021/12/28 00:38:26;;;;;;;;;;;;;;;;;;5134081;27;915;-61
2021/12/28 00:40:53;;;;;;;;;;;;;;;;;;5134637;27;990;-61
2021/12/28 00:43:18;;;;;;;;;;;;;;;;;;5134305;27;941;-61
2021/12/28 00:45:44;;;;;;;;;;;;;;;;;;5134525;27;816;-61
2021/12/28 00:48:10;;;;;;;;;;;;;;;;;;5135097;27;951;-61
2021/12/28 00:50:36;;;;;;;;;;;;;;;;;;5134059;27;895;-61
2021/12/28 00:53:01;;;;;;;;;;;;;;;;;;5134191;27;1955;-61
2021/12/28 00:55:26;;;;;;;;;;;;;;;;;;5133852;27;836;-61
2021/12/28 00:57:52;;;;;;;;;;;;;;;;;;5133627;27;1116;-62
2021/12/28 01:00:19;;;;;;;;;;;;;;;;;;5133864;27;976;-61
2021/12/28 01:02:44;;;;;;;;;;;;;;;;;;5134176;27;872;-61
2021/12/28 01:05:10;;;;;;;;;;;;;;;;;;5134582;27;864;-61
2021/12/28 01:07:36;;;;;;;;;;;;;;;;;;5115084;27;1333;-61
2021/12/28 01:10:03;;;;;;;;;;;;;;;;;;5134484;27;827;-61
2021/12/28 01:12:28;;;;;;;;;;;;;;;;;;5133596;27;1905;-61
2021/12/28 01:14:53;;;;;;;;;;;;;;;;;;5115986;27;1202;-61
2021/12/28 01:17:19;;;;;;;;;;;;;;;;;;5134129;27;891;-61
2021/12/28 01:19:44;;;;;;;;;;;;;;;;;;5134156;27;875;-61
2021/12/28 01:22:09;;;;;;;;;;;;;;;;;;5133898;27;1029;-61
2021/12/28 01:24:34;;;;;;;;;;;;;;;;;;5133147;27;797;-62
2021/12/28 01:27:00;;;;;;;;;;;;;;;;;;5115317;27;856;-61
2021/12/28 01:29:25;;;;;;;;;;;;;;;;;;5114796;27;943;-61
2021/12/28 01:31:51;;;;;;;;;;;;;;;;;;5134146;27;1970;-62
2021/12/28 01:34:17;;;;;;;;;;;;;;;;;;5133656;27;967;-61
2021/12/28 01:36:43;;;;;;;;;;;;;;;;;;5133147;27;959;-61
2021/12/28 01:39:08;;;;;;;;;;;;;;;;;;5133634;27;875;-61
2021/12/28 01:41:34;;;;;;;;;;;;;;;;;;5133172;27;895;-61
2021/12/28 01:44:01;;;;;;;;;;;;;;;;;;5133785;27;856;-61
2021/12/28 01:46:27;;;;;;;;;;;;;;;;;;5132424;27;932;-61
2021/12/28 01:48:52;;;;;;;;;;;;;;;;;;5133366;27;856;-61
2021/12/28 01:51:19;;;;;;;;;;;;;;;;;;5133025;27;911;-61
2021/12/28 01:53:45;;;;;;;;;;;;;;;;;;5132603;27;1965;-61
2021/12/28 01:56:16;;;;;;;;;;;;;;;;;;5133121;27;1090;-61
2021/12/28 01:58:42;;;;;;;;;;;;;;;;;;5131932;27;1397;-61
2021/12/28 02:01:08;;;;;;;;;;;;;;;;;;5153828;27;1277;-61
2021/12/28 02:03:34;;;;;;;;;;;;;;;;;;5152687;27;867;-61
2021/12/28 02:05:59;;;;;;;;;;;;;;;;;;5153748;27;863;-61
2021/12/28 02:08:25;;;;;;;;;;;;;;;;;;5153656;27;796;-61
2021/12/28 02:10:51;;;;;;;;;;;;;;;;;;5152894;27;792;-61
2021/12/28 02:13:17;;;;;;;;;;;;;;;;;;5152919;27;1910;-61
2021/12/28 02:15:43;;;;;;;;;;;;;;;;;;5152551;27;958;-61
2021/12/28 02:18:09;;;;;;;;;;;;;;;;;;5152915;27;888;-61
2021/12/28 02:20:35;;;;;;;;;;;;;;;;;;5152981;27;913;-61
2021/12/28 02:23:01;;;;;;;;;;;;;;;;;;5152629;27;904;-61
2021/12/28 02:25:26;;;;;;;;;;;;;;;;;;5152635;27;868;-61
2021/12/28 02:27:52;;;;;;;;;;;;;;;;;;5134142;27;770;-61
2021/12/28 02:30:19;;;;;;;;;;;;;;;;;;5152617;27;816;-61
2021/12/28 02:32:45;;;;;;;;;;;;;;;;;;5116379;27;1902;-61
2021/12/28 02:35:12;;;;;;;;;;;;;;;;;;5152946;27;985;-61
2021/12/28 02:37:38;;;;;;;;;;;;;;;;;;5151764;27;927;-61
2021/12/28 02:40:05;;;;;;;;;;;;;;;;;;5152678;27;803;-61
2021/12/28 02:42:30;;;;;;;;;;;;;;;;;;5152264;27;1391;-61
2021/12/28 02:45:01;;;;;;;;;;;;;;;;;;5134200;27;761;-61
2021/12/28 02:47:27;;;;;;;;;;;;;;;;;;5152530;27;890;-61
2021/12/28 02:49:52;;;;;;;;;;;;;;;;;;5133549;27;1364;-61
2021/12/28 02:52:17;;;;;;;;;;;;;;;;;;5152939;27;1905;-61
2021/12/28 02:54:43;;;;;;;;;;;;;;;;;;5152082;27;828;-61
2021/12/28 02:57:08;;;;;;;;;;;;;;;;;;5152935;27;1067;-61
2021/12/28 02:59:33;;;;;;;;;;;;;;;;;;5152659;27;823;-61
2021/12/28 03:01:58;;;;;;;;;;;;;;;;;;5153291;27;935;-61
2021/12/28 03:04:27;;;;;;;;;;;;;;;;;;5153003;27;875;-61
2021/12/28 03:06:52;;;;;;;;;;;;;;;;;;5153342;27;840;-61
2021/12/28 03:09:20;;;;;;;;;;;;;;;;;;5153384;27;891;-61
2021/12/28 03:11:46;;;;;;;;;;;;;;;;;;5152190;27;1898;-61
2021/12/28 03:14:11;;;;;;;;;;;;;;;;;;5134090;27;904;-61
2021/12/28 03:16:36;;;;;;;;;;;;;;;;;;5133523;27;809;-61
2021/12/28 03:19:03;;;;;;;;;;;;;;;;;;5134064;27;931;-61
2021/12/28 03:21:28;;;;;;;;;;;;;;;;;;5152005;27;808;-61
2021/12/28 03:23:54;;;;;;;;;;;;;;;;;;5152675;27;918;-61
2021/12/28 03:26:20;;;;;;;;;;;;;;;;;;5152470;27;883;-61
2021/12/28 03:28:46;;;;;;;;;;;;;;;;;;5152273;27;843;-61
2021/12/28 03:31:13;;;;;;;;;;;;;;;;;;5152801;27;891;-61
2021/12/28 03:33:40;;;;;;;;;;;;;;;;;;5151841;27;1959;-61
2021/12/28 03:36:07;;;;;;;;;;;;;;;;;;5133893;27;1364;-61
2021/12/28 03:38:32;;;;;;;;;;;;;;;;;;5151874;27;832;-61
2021/12/28 03:40:58;;;;;;;;;;;;;;;;;;5152436;27;777;-61
2021/12/28 03:43:23;;;;;;;;;;;;;;;;;;5151881;27;816;-61
2021/12/28 03:45:49;;;;;;;;;;;;;;;;;;5133054;27;876;-61
2021/12/28 03:48:14;;;;;;;;;;;;;;;;;;5152242;27;887;-61
2021/12/28 03:50:39;;;;;;;;;;;;;;;;;;5153525;27;1006;-61
2021/12/28 03:53:06;;;;;;;;;;;;;;;;;;5156233;27;1967;-61
2021/12/28 03:55:32;;;;;;;;;;;;;;;;;;5155471;27;895;-61
2021/12/28 03:57:59;;;;;;;;;;;;;;;;;;5155780;27;1415;-61
2021/12/28 04:00:26;;;;;;;;;;;;;;;;;;5137402;27;980;-61
2021/12/28 04:02:51;;;;;;;;;;;;;;;;;;5155614;27;895;-61
2021/12/28 04:05:16;;;;;;;;;;;;;;;;;;5155793;27;884;-61
2021/12/28 04:07:42;;;;;;;;;;;;;;;;;;5154737;27;1045;-61
2021/12/28 04:10:10;;;;;;;;;;;;;;;;;;5155399;27;848;-61
2021/12/28 04:12:36;;;;;;;;;;;;;;;;;;5154940;27;1964;-61
2021/12/28 04:15:01;;;;;;;;;;;;;;;;;;5155476;27;827;-61
2021/12/28 04:17:27;;;;;;;;;;;;;;;;;;5136749;27;891;-61
2021/12/28 04:19:53;;;;;;;;;;;;;;;;;;5155018;27;820;-61
2021/12/28 04:22:18;;;;;;;;;;;;;;;;;;5155579;27;958;-61
2021/12/28 04:24:44;;;;;;;;;;;;;;;;;;5118785;27;1182;-61
2021/12/28 04:27:09;;;;;;;;;;;;;;;;;;5155557;27;703;-61
2021/12/28 04:29:34;;;;;;;;;;;;;;;;;;5155130;27;765;-61
2021/12/28 04:32:00;;;;;;;;;;;;;;;;;;5155205;27;1974;-61
2021/12/28 04:37:53;;;;;;;;;;;;;;;;;;5130719;22;1759;-61
2021/12/28 04:40:19;;;;;;;;;;;;;;;;;;5081858;22;2186;-61
2021/12/28 04:42:44;;;;;;;;;;;;;;;;;;5094186;28;872;-62
2021/12/28 04:45:10;;;;;;;;;;;;;;;;;;5093976;28;817;-61
2021/12/28 04:47:36;;;;;;;;;;;;;;;;;;5094317;28;1042;-61
2021/12/28 04:50:02;;;;;;;;;;;;;;;;;;5093916;28;590;-61
2021/12/28 04:52:33;;;;;;;;;;;;;;;;;;5093604;28;1918;-61
2021/12/28 04:54:58;;;;;;;;;;;;;;;;;;5093944;28;926;-61
2021/12/28 04:57:24;;;;;;;;;;;;;;;;;;5093928;28;1014;-61
2021/12/28 04:59:49;;;;;;;;;;;;;;;;;;5094101;28;852;-61
2021/12/28 05:02:14;;;;;;;;;;;;;;;;;;5093458;28;970;-61
2021/12/28 05:04:39;;;;;;;;;;;;;;;;;;5093661;28;880;-61
2021/12/28 05:07:05;;;;;;;;;;;;;;;;;;5094037;28;841;-61
2021/12/28 05:09:30;;;;;;;;;;;;;;;;;;5092321;28;856;-61
2021/12/28 05:11:55;;;;;;;;;;;;;;;;;;5093839;28;1961;-61
2021/12/28 05:14:21;;;;;;;;;;;;;;;;;;5093595;28;849;-61
2021/12/28 05:16:47;;;;;;;;;;;;;;;;;;5093615;28;856;-61
2021/12/28 05:19:12;;;;;;;;;;;;;;;;;;5093637;28;934;-61
2021/12/28 05:21:38;;;;;;;;;;;;;;;;;;5093261;28;857;-61
2021/12/28 05:24:03;;;;;;;;;;;;;;;;;;5092304;28;947;-61
2021/12/28 05:26:29;;;;;;;;;;;;;;;;;;5092933;28;2112;-61
2021/12/28 05:28:55;;;;;;;;;;;;;;;;;;5093539;28;865;-61
2021/12/28 05:31:21;;;;;;;;;;;;;;;;;;5093359;28;884;-61
2021/12/28 05:33:46;;;;;;;;;;;;;;;;;;5093275;28;1961;-61
2021/12/28 05:36:12;;;;;;;;;;;;;;;;;;5093340;28;821;-61
2021/12/28 05:38:37;;;;;;;;;;;;;;;;;;5092911;28;880;-61
2021/12/28 05:41:03;;;;;;;;;;;;;;;;;;5093236;28;1267;-61
2021/12/28 05:43:29;;;;;;;;;;;;;;;;;;5092876;28;995;-61
2021/12/28 05:45:54;;;;;;;;;;;;;;;;;;5093119;28;833;-60
2021/12/28 05:48:19;;;;;;;;;;;;;;;;;;5091083;28;888;-61
2021/12/28 05:50:44;;;;;;;;;;;;;;;;;;5092991;28;856;-60
2021/12/28 05:53:10;;;;;;;;;;;;;;;;;;5092994;28;1905;-61
2021/12/28 05:55:35;;;;;;;;;;;;;;;;;;5092284;28;896;-61
2021/12/28 05:58:00;;;;;;;;;;;;;;;;;;5092723;28;955;-61
2021/12/28 06:00:28;;;;;;;;;;;;;;;;;;5092134;28;895;-61
2021/12/28 06:02:53;;;;;;;;;;;;;;;;;;5092290;28;884;-61
2021/12/28 06:05:19;;;;;;;;;;;;;;;;;;5092173;28;821;-61
2021/12/28 06:07:44;;;;;;;;;;;;;;;;;;5093671;28;773;-61
2021/12/28 06:10:09;;;;;;;;;;;;;;;;;;5092373;28;872;-61
2021/12/28 06:12:34;;;;;;;;;;;;;;;;;;5091260;28;1902;-61
2021/12/28 06:15:00;;;;;;;;;;;;;;;;;;5092530;28;820;-61
2021/12/28 06:17:25;;;;;;;;;;;;;;;;;;5091643;28;907;-61
2021/12/28 06:19:50;;;;;;;;;;;;;;;;;;5091967;28;781;-61
2021/12/28 06:22:15;;;;;;;;;;;;;;;;;;5092193;28;836;-61
2021/12/28 06:24:41;;;;;;;;;;;;;;;;;;5091502;28;907;-61
2021/12/28 06:27:06;;;;;;;;;;;;;;;;;;5092316;28;927;-61
2021/12/28 06:29:32;;;;;;;;;;;;;;;;;;5090348;28;1436;-61
2021/12/28 06:31:57;;;;;;;;;;;;;;;;;;5090400;28;1898;-61
2021/12/28 06:34:22;;;;;;;;;;;;;;;;;;5091703;28;891;-61
2021/12/28 06:36:48;;;;;;;;;;;;;;;;;;5092392;28;1017;-61
2021/12/28 06:39:13;;;;;;;;;;;;;;;;;;5092208;28;1151;-61
2021/12/28 06:41:38;;;;;;;;;;;;;;;;;;5092192;28;962;-60
2021/12/28 06:44:04;;;;;;;;;;;;;;;;;;5092005;28;895;-60
2021/12/28 06:46:29;;;;;;;;;;;;;;;;;;5091569;28;860;-61
2021/12/28 06:48:55;;;;;;;;;;;;;;;;;;5091874;28;909;-60
2021/12/28 06:51:20;;;;;;;;;;;;;;;;;;5092056;28;1010;-61
2021/12/28 06:53:46;;;;;;;;;;;;;;;;;;5091586;28;1913;-61
2021/12/28 06:56:12;;;;;;;;;;;;;;;;;;5092524;28;868;-61
2021/12/28 06:58:38;;;;;;;;;;;;;;;;;;5090346;28;1190;-61
2021/12/28 07:01:04;;;;;;;;;;;;;;;;;;5091637;28;887;-61
2021/12/28 07:03:29;;;;;;;;;;;;;;;;;;5091752;28;852;-61
2021/12/28 07:05:54;;;;;;;;;;;;;;;;;;5091968;28;817;-61
2021/12/28 07:08:20;;;;;;;;;;;;;;;;;;5091930;28;848;-61
2021/12/28 07:10:45;;;;;;;;;;;;;;;;;;5092114;28;967;-61
2021/12/28 07:13:10;;;;;;;;;;;;;;;;;;5091901;28;1993;-61
2021/12/28 07:15:35;;;;;;;;;;;;;;;;;;5091468;28;970;-61
2021/12/28 07:18:01;;;;;;;;;;;;;;;;;;5091422;28;987;-61
2021/12/28 07:20:27;;;;;;;;;;;;;;;;;;5091610;28;863;-61
2021/12/28 07:22:52;;;;;;;;;;;;;;;;;;5091854;28;867;-61
2021/12/28 07:25:18;;;;;;;;;;;;;;;;;;5094702;28;1046;-61
2021/12/28 07:27:43;;;;;;;;;;;;;;;;;;5095526;28;1128;-61
2021/12/28 07:30:10;;;;;;;;;;;;;;;;;;5095747;28;909;-61
2021/12/28 07:32:35;;;;;;;;;;;;;;;;;;5095069;28;1905;-61
2021/12/28 07:35:01;;;;;;;;;;;;;;;;;;5095548;28;876;-61
2021/12/28 07:37:26;;;;;;;;;;;;;;;;;;5095031;28;880;-61
2021/12/28 07:39:53;;;;;;;;;;;;;;;;;;5094007;28;1017;-60
2021/12/28 07:42:19;;;;;;;;;;;;;;;;;;5093771;28;2274;-60
2021/12/28 07:44:44;;;;;;;;;;;;;;;;;;5094986;28;781;-60
2021/12/28 07:47:09;;;;;;;;;;;;;;;;;;5076742;28;1170;-60
2021/12/28 07:49:35;;;;;;;;;;;;;;;;;;5094787;28;969;-60
2021/12/28 07:52:00;;;;;;;;;;;;;;;;;;5094930;28;1969;-60
2021/12/28 07:54:25;;;;;;;;;;;;;;;;;;5095042;28;1113;-61
2021/12/28 07:56:50;;;;;;;;;;;;;;;;;;5094542;28;880;-60
2021/12/28 07:59:16;;;;;;;;;;;;;;;;;;5095151;28;867;-61
2021/12/28 08:01:41;;;;;;;;;;;;;;;;;;5093524;28;824;-60
2021/12/28 08:04:06;;;;;;;;;;;;;;;;;;5094936;28;880;-60
2021/12/28 08:06:32;;;;;;;;;;;;;;;;;;5094461;28;887;-61
2021/12/28 08:08:57;;;;;;;;;;;;;;;;;;5094875;28;904;-61
2021/12/28 08:11:23;;;;;;;;;;;;;;;;;;5094749;28;938;-60
2021/12/28 08:13:49;;;;;;;;;;;;;;;;;;5094720;28;1964;-60
2021/12/28 08:16:14;;;;;;;;;;;;;;;;;;5094812;28;950;-61
2021/12/28 08:18:40;;;;;;;;;;;;;;;;;;5094283;28;1045;-61
2021/12/28 08:21:05;;;;;;;;;;;;;;;;;;5094618;28;966;-61
2021/12/28 08:23:30;;;;;;;;;;;;;;;;;;5094257;28;963;-61
2021/12/28 08:25:55;;;;;;;;;;;;;;;;;;5069734;28;1249;-61
2021/12/28 08:28:21;;;;;;;;;;;;;;;;;;5054685;28;829;-60
2021/12/28 08:30:46;;;;;;;;;;;;;;;;;;5054173;28;928;-61
2021/12/28 08:33:11;;;;;;;;;;;;;;;;;;5053953;28;1898;-61
2021/12/28 08:35:39;;;;;;;;;;;;;;;;;;5051878;28;947;-61
2021/12/28 08:38:05;;;;;;;;;;;;;;;;;;5054246;28;894;-61
2021/12/28 08:40:31;;;;;;;;;;;;;;;;;;5054004;28;1043;-61
2021/12/28 08:42:56;;;;;;;;;;;;;;;;;;5052674;28;813;-61
2021/12/28 08:45:21;;;;;;;;;;;;;;;;;;5054211;28;868;-61
2021/12/28 08:47:48;;;;;;;;;;;;;;;;;;5054500;28;889;-61
2021/12/28 08:50:14;;;;;;;;;;;;;;;;;;5052925;28;1376;-61
2021/12/28 08:52:39;;;;;;;;;;;;;;;;;;5053833;28;1965;-61
2021/12/28 08:55:05;;;;;;;;;;;;;;;;;;5054258;28;868;-61
2021/12/28 08:57:31;;;;;;;;;;;;;;;;;;5054358;28;1081;-61
2021/12/28 08:59:56;;;;;;;;;;;;;;;;;;5053838;28;880;-61
2021/12/28 09:02:21;;;;;;;;;;;;;;;;;;5054179;28;962;-61
2021/12/28 09:04:46;;;;;;;;;;;;;;;;;;5053982;28;872;-60
2021/12/28 09:07:16;;;;;;;;;;;;;;;;;;5054023;28;857;-60
2021/12/28 09:09:42;;;;;;;;;;;;;;;;;;5052090;28;1804;-61
2021/12/28 09:12:07;;;;;;;;;;;;;;;;;;5052491;28;1890;-61
2021/12/28 09:14:33;;;;;;;;;;;;;;;;;;5053494;28;1232;-61
2021/12/28 09:16:59;;;;;;;;;;;;;;;;;;5053128;28;929;-61
2021/12/28 09:19:24;;;;;;;;;;;;;;;;;;5053707;28;926;-61
2021/12/28 09:21:50;;;;;;;;;;;;;;;;;;5053248;28;943;-61
2021/12/28 09:24:15;;;;;;;;;;;;;;;;;;5053299;28;928;-61
2021/12/28 09:26:40;;;;;;;;;;;;;;;;;;5052584;28;865;-61
2021/12/28 09:29:05;;;;;;;;;;;;;;;;;;5053092;28;794;-61
2021/12/28 09:31:31;;;;;;;;;;;;;;;;;;5052764;28;900;-61
2021/12/28 09:33:56;;;;;;;;;;;;;;;;;;5050779;28;1914;-61
2021/12/28 09:36:21;;;;;;;;;;;;;;;;;;5051221;28;1452;-61
2021/12/28 09:38:47;;;;;;;;;;;;;;;;;;5050882;28;910;-61
2021/12/28 09:41:13;;;;;;;;;;;;;;;;;;5052139;28;1297;-60
2021/12/28 09:43:39;;;;;;;;;;;;;;;;;;5052106;28;841;-61
2021/12/28 09:46:04;;;;;;;;;;;;;;;;;;5051640;28;616;-61
2021/12/28 09:48:31;;;;;;;;;;;;;;;;;;5052709;28;841;-61
2021/12/28 09:50:57;;;;;;;;;;;;;;;;;;5056822;28;1266;-60
2021/12/28 09:53:22;;;;;;;;;;;;;;;;;;5054219;28;1980;-62
2021/12/28 09:55:47;;;;;;;;;;;;;;;;;;5052923;28;928;-61
2021/12/28 09:58:13;;;;;;;;;;;;;;;;;;5052026;28;833;-61
2021/12/28 10:00:38;;;;;;;;;;;;;;;;;;5052051;28;923;-60
2021/12/28 10:03:03;;;;;;;;;;;;;;;;;;5052945;28;899;-60
2021/12/28 10:05:30;;;;;;;;;;;;;;;;;;5052238;28;1053;-60
2021/12/28 10:07:57;;;;;;;;;;;;;;;;;;5051559;28;850;-60
2021/12/28 10:10:41;;;;;;;;;;;;;;;;;;5052406;28;832;-60
2021/12/28 10:13:08;;;;;;;;;;;;;;;;;;5051818;28;1951;-61
2021/12/28 10:15:35;;;;;;;;;;;;;;;;;;5051869;28;1132;-60
2021/12/28 10:18:03;;;;;;;;;;;;;;;;;;5065836;28;1196;-60
2021/12/28 10:20:30;;;;;;;;;;;;;;;;;;5059723;28;1148;-60
2021/12/28 10:22:58;;;;;;;;;;;;;;;;;;5065594;28;1216;-60
2021/12/28 10:25:25;;;;;;;;;;;;;;;;;;5051459;28;1140;-60
2021/12/28 10:27:52;;;;;;;;;;;;;;;;;;5050473;28;852;-60
2021/12/28 10:30:21;;;;;;;;;;;;;;;;;;5052447;28;951;-61
2021/12/28 10:32:47;;;;;;;;;;;;;;;;;;5051658;28;1953;-60
2021/12/28 10:35:18;;;;;;;;;;;;;;;;;;5052195;28;806;-60
2021/12/28 10:37:48;;;;;;;;;;;;;;;;;;5051906;28;788;-60
2021/12/28 10:40:19;;;;;;;;;;;;;;;;;;5052632;28;1331;-60
2021/12/28 10:42:46;;;;;;;;;;;;;;;;;;5052072;28;754;-60
2021/12/28 10:45:17;;;;;;;;;;;;;;;;;;5051777;28;960;-60
2021/12/28 10:47:43;;;;;;;;;;;;;;;;;;5051442;28;853;-61
2021/12/28 10:50:20;;;;;;;;;;;;;;;;;;5033752;28;1187;-60
2021/12/28 10:52:50;;;;;;;;;;;;;;;;;;5051741;28;1919;-60
2021/12/28 10:55:21;;;;;;;;;;;;;;;;;;5052242;28;879;-60
2021/12/28 10:57:46;;;;;;;;;;;;;;;;;;5051493;28;912;-61
2021/12/28 11:00:20;;;;;;;;;;;;;;;;;;5056745;28;869;-60
2021/12/28 11:02:46;;;;;;;;;;;;;;;;;;5058213;28;805;-61
2021/12/28 11:05:33;;;;;;;;;;;;;;;;;;5056783;28;1508;-61
2021/12/28 11:07:59;;;;;;;;;;;;;;;;;;5056593;28;1369;-60
2021/12/28 11:10:28;;;;;;;;;;;;;;;;;;5058198;28;895;-60
2021/12/28 11:12:54;;;;;;;;;;;;;;;;;;5055924;28;1906;-61
2021/12/28 11:15:23;;;;;;;;;;;;;;;;;;5058266;28;830;-60
2021/12/28 11:17:48;;;;;;;;;;;;;;;;;;5057613;28;904;-60
2021/12/28 11:20:14;;;;;;;;;;;;;;;;;;5056885;28;1219;-60
2021/12/28 11:22:39;;;;;;;;;;;;;;;;;;5058101;28;932;-60
2021/12/28 11:25:25;;;;;;;;;;;;;;;;;;5057928;28;856;-60
2021/12/28 11:28:10;;;;;;;;;;;;;;;;;;5057284;28;897;-60
2021/12/28 11:30:35;;;;;;;;;;;;;;;;;;5058080;28;924;-60
2021/12/28 11:33:07;;;;;;;;;;;;;;;;;;5057428;28;1988;-60
2021/12/28 11:35:32;;;;;;;;;;;;;;;;;;5057803;28;860;-60
2021/12/28 11:37:58;;;;;;;;;;;;;;;;;;5057091;28;929;-61
2021/12/28 11:40:23;;;;;;;;;;;;;;;;;;5055970;28;1350;-60
2021/12/28 11:42:48;;;;;;;;;;;;;;;;;;5057220;28;999;-60
2021/12/28 11:45:14;;;;;;;;;;;;;;;;;;5056444;28;959;-60
2021/12/28 11:47:39;;;;;;;;;;;;;;;;;;5055740;28;822;-60
2021/12/28 11:50:08;;;;;;;;;;;;;;;;;;5057082;28;1046;-60
2021/12/28 11:52:33;;;;;;;;;;;;;;;;;;5057325;28;1932;-61
2021/12/28 11:54:58;;;;;;;;;;;;;;;;;;5056989;28;983;-62
2021/12/28 11:57:30;;;;;;;;;;;;;;;;;;5057286;28;840;-61
2021/12/28 11:59:56;;;;;;;;;;;;;;;;;;5057169;28;882;-61
2021/12/28 12:02:36;;;;;;;;;;;;;;;;;;5057283;28;1018;-61
2021/12/28 12:05:11;;;;;;;;;;;;;;;;;;5056769;28;826;-61
2021/12/28 12:07:37;;;;;;;;;;;;;;;;;;5056203;28;912;-64
2021/12/28 12:10:07;;;;;;;;;;;;;;;;;;5056402;28;816;-60
2021/12/28 12:12:43;;;;;;;;;;;;;;;;;;5053394;28;1986;-60
2021/12/28 12:15:10;;;;;;;;;;;;;;;;;;5052787;28;834;-59
2021/12/28 12:17:43;;;;;;;;;;;;;;;;;;5053928;28;801;-61
2021/12/28 12:20:21;;;;;;;;;;;;;;;;;;5054725;28;821;-61
2021/12/28 12:22:52;;;;;;;;;;;;;;;;;;5054341;28;962;-61
2021/12/28 12:25:19;;;;;;;;;;;;;;;;;;5053434;28;880;-61
2021/12/28 12:27:59;;;;;;;;;;;;;;;;;;5052597;28;1274;-61
2021/12/28 12:30:24;;;;;;;;;;;;;;;;;;5052508;28;825;-62
2021/12/28 12:33:02;;;;;;;;;;;;;;;;;;5054009;28;1947;-61
2021/12/28 12:35:32;;;;;;;;;;;;;;;;;;5054088;28;866;-62
2021/12/28 12:37:58;;;;;;;;;;;;;;;;;;5052207;28;914;-61
2021/12/28 12:40:43;;;;;;;;;;;;;;;;;;5053576;28;1268;-61
2021/12/28 12:43:12;;;;;;;;;;;;;;;;;;5053294;28;1139;-62
2021/12/28 12:46:00;;;;;;;;;;;;;;;;;;5053717;28;833;-61
2021/12/28 12:48:51;;;;;;;;;;;;;;;;;;5034052;28;1301;-61
2021/12/28 12:51:23;;;;;;;;;;;;;;;;;;5053431;28;1890;-61
2021/12/28 12:53:54;;;;;;;;;;;;;;;;;;5052006;28;1957;-61
2021/12/28 12:56:27;;;;;;;;;;;;;;;;;;5053943;28;849;-62
2021/12/28 12:58:54;;;;;;;;;;;;;;;;;;5053431;28;885;-61
2021/12/28 13:01:23;;;;;;;;;;;;;;;;;;5053607;28;833;-60
2021/12/28 13:03:48;;;;;;;;;;;;;;;;;;5051782;28;840;-62
2021/12/28 13:06:13;;;;;;;;;;;;;;;;;;5053521;28;853;-61
2021/12/28 13:08:39;;;;;;;;;;;;;;;;;;5053194;28;813;-61
2021/12/28 13:11:04;;;;;;;;;;;;;;;;;;5053307;28;896;-61
2021/12/28 13:13:30;;;;;;;;;;;;;;;;;;5052378;28;1980;-61
2021/12/28 13:15:55;;;;;;;;;;;;;;;;;;5052627;28;825;-61
2021/12/28 13:18:21;;;;;;;;;;;;;;;;;;5061256;28;1921;-60
2021/12/28 13:20:47;;;;;;;;;;;;;;;;;;5072494;28;786;-61
2021/12/28 13:23:13;;;;;;;;;;;;;;;;;;5071980;28;869;-62
2021/12/28 13:25:45;;;;;;;;;;;;;;;;;;5072833;28;872;-62
2021/12/28 13:28:11;;;;;;;;;;;;;;;;;;5072440;28;913;-62
2021/12/28 13:30:39;;;;;;;;;;;;;;;;;;5072211;28;879;-62
2021/12/28 13:33:06;;;;;;;;;;;;;;;;;;5071531;28;1963;-62
2021/12/28 13:35:32;;;;;;;;;;;;;;;;;;5072002;28;879;-62
2021/12/28 13:38:02;;;;;;;;;;;;;;;;;;5071916;28;849;-61
2021/12/28 13:40:28;;;;;;;;;;;;;;;;;;5072046;28;1084;-62
2021/12/28 13:42:59;;;;;;;;;;;;;;;;;;5072136;28;1405;-62
2021/12/28 13:45:27;;;;;;;;;;;;;;;;;;5072264;28;856;-62
2021/12/28 13:47:52;;;;;;;;;;;;;;;;;;5072173;28;986;-61
2021/12/28 13:50:17;;;;;;;;;;;;;;;;;;5072207;28;1097;-61
2021/12/28 13:52:44;;;;;;;;;;;;;;;;;;5071815;28;1902;-62
2021/12/28 13:55:11;;;;;;;;;;;;;;;;;;5071856;28;771;-62
2021/12/28 13:57:37;;;;;;;;;;;;;;;;;;5072021;28;876;-61
2021/12/28 14:00:03;;;;;;;;;;;;;;;;;;5070070;28;888;-61
2021/12/28 14:02:30;;;;;;;;;;;;;;;;;;5070144;28;1243;-61
2021/12/28 14:04:56;;;;;;;;;;;;;;;;;;5071749;28;869;-61
2021/12/28 14:07:21;;;;;;;;;;;;;;;;;;5071615;28;798;-62
2021/12/28 14:09:49;;;;;;;;;;;;;;;;;;5070935;28;916;-61
2021/12/28 14:12:15;;;;;;;;;;;;;;;;;;5071387;28;1897;-61
2021/12/28 14:14:45;;;;;;;;;;;;;;;;;;5071912;28;844;-61
2021/12/28 14:17:14;;;;;;;;;;;;;;;;;;5071902;28;856;-61
2021/12/28 14:19:44;;;;;;;;;;;;;;;;;;5071518;28;942;-61
2021/12/28 14:22:13;;;;;;;;;;;;;;;;;;5071921;28;994;-62
2021/12/28 14:24:41;;;;;;;;;;;;;;;;;;5071637;28;840;-62
2021/12/28 14:27:06;;;;;;;;;;;;;;;;;;5071556;28;912;-61
2021/12/28 14:29:32;;;;;;;;;;;;;;;;;;5071823;28;813;-64
2021/12/28 14:31:57;;;;;;;;;;;;;;;;;;5071916;28;1898;-63
2021/12/28 14:34:31;;;;;;;;;;;;;;;;;;5070782;28;837;-63
2021/12/28 14:37:15;;;;;;;;;;;;;;;;;;5071483;28;1128;-63
2021/12/28 14:39:42;;;;;;;;;;;;;;;;;;5071828;28;886;-63
2021/12/28 14:42:10;;;;;;;;;;;;;;;;;;5071489;28;1352;-64
2021/12/28 14:44:37;;;;;;;;;;;;;;;;;;5071316;28;915;-64
2021/12/28 14:47:12;;;;;;;;;;;;;;;;;;5071758;28;904;-63
2021/12/28 14:49:37;;;;;;;;;;;;;;;;;;5071814;28;840;-63
2021/12/28 14:52:14;;;;;;;;;;;;;;;;;;5071472;28;1902;-63
2021/12/28 14:54:58;;;;;;;;;;;;;;;;;;5072078;28;830;-64
2021/12/28 14:57:23;;;;;;;;;;;;;;;;;;5071794;28;979;-64
2021/12/28 14:59:50;;;;;;;;;;;;;;;;;;5071385;28;876;-63
2021/12/28 15:02:16;;;;;;;;;;;;;;;;;;5071321;28;939;-65
2021/12/28 15:04:48;;;;;;;;;;;;;;;;;;5071461;28;984;-65
2021/12/28 15:07:14;;;;;;;;;;;;;;;;;;5071533;28;1054;-62
2021/12/28 15:09:39;;;;;;;;;;;;;;;;;;5070002;28;881;-61
2021/12/28 15:12:06;;;;;;;;;;;;;;;;;;5070067;28;1903;-61
2021/12/28 15:14:32;;;;;;;;;;;;;;;;;;5070086;28;1265;-61
2021/12/28 15:16:58;;;;;;;;;;;;;;;;;;5071036;28;853;-61
2021/12/28 15:19:27;;;;;;;;;;;;;;;;;;5070901;28;852;-61
2021/12/28 15:21:53;;;;;;;;;;;;;;;;;;5071086;28;840;-61
2021/12/28 15:24:18;;;;;;;;;;;;;;;;;;5071785;28;895;-60
2021/12/28 15:26:44;;;;;;;;;;;;;;;;;;5071588;28;794;-60
2021/12/28 15:29:09;;;;;;;;;;;;;;;;;;5070939;28;892;-60
2021/12/28 15:31:34;;;;;;;;;;;;;;;;;;5069707;28;904;-60
2021/12/28 15:34:00;;;;;;;;;;;;;;;;;;5071118;28;1902;-60
2021/12/28 15:36:25;;;;;;;;;;;;;;;;;;5070718;28;986;-60
2021/12/28 15:38:50;;;;;;;;;;;;;;;;;;5070567;28;988;-60
2021/12/28 15:41:16;;;;;;;;;;;;;;;;;;5071087;28;1254;-60
2021/12/28 15:43:41;;;;;;;;;;;;;;;;;;5070085;28;1304;-61
2021/12/28 15:46:09;;;;;;;;;;;;;;;;;;5073305;28;864;-61
2021/12/28 15:48:35;;;;;;;;;;;;;;;;;;5073275;28;969;-61
2021/12/28 15:51:00;;;;;;;;;;;;;;;;;;5072330;28;1236;-61
2021/12/28 15:53:25;;;;;;;;;;;;;;;;;;5052422;28;1887;-61
2021/12/28 15:55:51;;;;;;;;;;;;;;;;;;5058302;28;1298;-61
2021/12/28 15:58:16;;;;;;;;;;;;;;;;;;5062118;28;1136;-61
2021/12/28 16:00:43;;;;;;;;;;;;;;;;;;5072843;28;1160;-61
2021/12/28 16:03:08;;;;;;;;;;;;;;;;;;5073356;28;1160;-60
2021/12/28 16:05:34;;;;;;;;;;;;;;;;;;5071254;28;1348;-61
2021/12/28 16:07:59;;;;;;;;;;;;;;;;;;5055457;28;1108;-60
2021/12/28 16:10:24;;;;;;;;;;;;;;;;;;5052623;28;1357;-61
2021/12/28 16:12:50;;;;;;;;;;;;;;;;;;5051482;28;1947;-61
2021/12/28 16:15:16;;;;;;;;;;;;;;;;;;5054160;28;1196;-60
2021/12/28 16:17:41;;;;;;;;;;;;;;;;;;5055045;28;888;-61
2021/12/28 16:20:07;;;;;;;;;;;;;;;;;;5054619;28;833;-60
2021/12/28 16:22:32;;;;;;;;;;;;;;;;;;5054365;28;860;-60
2021/12/28 16:24:59;;;;;;;;;;;;;;;;;;5052605;28;895;-60
2021/12/28 16:27:24;;;;;;;;;;;;;;;;;;5052755;28;853;-60
2021/12/28 16:29:50;;;;;;;;;;;;;;;;;;5054118;28;801;-61
2021/12/28 16:32:15;;;;;;;;;;;;;;;;;;5053631;28;2322;-61
2021/12/28 16:34:41;;;;;;;;;;;;;;;;;;5054067;28;825;-61
2021/12/28 16:37:07;;;;;;;;;;;;;;;;;;5052900;28;896;-60
2021/12/28 16:39:32;;;;;;;;;;;;;;;;;;5052091;28;897;-60
2021/12/28 16:41:58;;;;;;;;;;;;;;;;;;5052592;28;1232;-59
2021/12/28 16:44:23;;;;;;;;;;;;;;;;;;5052688;28;924;-60
2021/12/28 16:46:54;;;;;;;;;;;;;;;;;;5054179;28;781;-60
2021/12/28 16:49:19;;;;;;;;;;;;;;;;;;5052723;28;1298;-60
2021/12/28 16:51:45;;;;;;;;;;;;;;;;;;5071508;28;1148;-60
2021/12/28 16:54:10;;;;;;;;;;;;;;;;;;5063160;28;1963;-59
2021/12/28 16:56:35;;;;;;;;;;;;;;;;;;5072115;28;1143;-60
2021/12/28 16:59:01;;;;;;;;;;;;;;;;;;5073597;28;833;-60
2021/12/28 17:01:28;;;;;;;;;;;;;;;;;;5073116;28;853;-60
2021/12/28 17:03:54;;;;;;;;;;;;;;;;;;5073166;28;856;-60
2021/12/28 17:06:21;;;;;;;;;;;;;;;;;;5072708;28;1189;-59
2021/12/28 17:08:46;;;;;;;;;;;;;;;;;;5073958;28;923;-60
2021/12/28 17:11:12;;;;;;;;;;;;;;;;;;5072994;28;763;-60
2021/12/28 17:13:41;;;;;;;;;;;;;;;;;;5072691;28;1967;-60
2021/12/28 17:16:06;;;;;;;;;;;;;;;;;;5072351;28;836;-59